Airfield :
LOGIN :

Register | Disclaimer

   EN    FR    IT 

 










Legend :    VFR   Marginal VFR   IFR   Intensive IFR   Very Intensive IFR
Visi :
Ceiling :
>= 8 km
>= 3000ft
5 to 8 km
1000 to 3000 ft
1500m to 5 km
500 to 1000 ft
800 to 1500m
200 to 500 ft
< 800m
< 200 ft
Symbols :   Thunderstorms  Fog  Heavy snow  Heavy precipitations  Wind > 20 kt
SIGMETs :     Misc.  Thunderstorms  Icing  Turbulence  Mountain Waves  Volcanic Ashes






- Airport Elevation : 11 ft
- IATA code : MJV


LELC - Murcia San Javier

CURRENT METAR :
  • 021130Z 04016KT 010V080 9999 FEW020 SCT035 28/20 Q1018 NOSIG

EXPIRED METARs :
  • 021100Z 03017KT 360V070 9999 SCT020 27/21 Q1017 NOSIG
  • 021030Z 03016KT 9999 SCT020 27/21 Q1017 NOSIG
  • 021000Z 03016KT 350V070 9999 BKN020 BKN035 27/20 Q1017 NOSIG
  • 020930Z 03016KT 010V070 9999 BKN020 27/20 Q1017 NOSIG
  • 020900Z 03017KT 9999 BKN020 26/20 Q1017 NOSIG

TAF TAF LELC
Valid from the 02 at 12:00 until the 03 at 12:00 UTC


021100Z 0212/0312 06014KT 9999 FEW020 TX29/0212Z TN21/0305Z
PROB30
TEMPO 0212/0216 06015G25KT
BECMG 0219/0222 35006KT
BECMG 0304/0306 07010KT
PROB30
TEMPO 0307/0312 13008KT



MET'MAP, your aeronautical weather chart ! - Copyright ORBIFLY December 2007 - Disclaimer

ORBIFLY MET'MAP TEAM :

Programming & Development : Alexandra Zaïnal
Original concept : Baudouin d'Aumeries
Technical & hardware support : Manuel Goepfert
Assistance : Marc-Olivier Méhu




SOURCES & CREDITS :

   NOAA